createdAt,value
2019-05-04T00:00:25.558Z,61.95
2019-05-04T00:02:55.001Z,61.56
2019-05-04T00:05:27.192Z,61.80
2019-05-04T00:07:56.525Z,62.16
2019-05-04T00:10:25.849Z,62.59
2019-05-04T00:12:55.232Z,62.16
2019-05-04T00:15:25.088Z,61.94
2019-05-04T00:17:55.370Z,62.01
2019-05-04T00:20:25.488Z,61.83
2019-05-04T00:22:55.364Z,61.80
2019-05-04T00:25:25.581Z,62.12
2019-05-04T00:27:55.371Z,62.20
2019-05-04T00:30:24.917Z,61.81
2019-05-04T00:33:05.415Z,62.17
2019-05-04T00:36:02.965Z,62.83
2019-05-04T00:38:32.304Z,62.93
2019-05-04T00:41:01.622Z,62.94
2019-05-04T00:43:30.967Z,63.05
2019-05-04T00:46:00.291Z,63.15
2019-05-04T00:48:29.625Z,63.59
2019-05-04T00:50:59.039Z,63.55
2019-05-04T00:53:28.365Z,63.40
2019-05-04T00:56:17.789Z,63.33
2019-05-04T00:58:56.562Z,63.30
2019-05-04T01:01:35.819Z,61.43
2019-05-04T01:04:05.134Z,60.75
2019-05-04T01:06:34.740Z,60.93
2019-05-04T01:09:05.470Z,61.11
2019-05-04T01:11:34.797Z,61.33
2019-05-04T01:14:04.496Z,61.45
2019-05-04T01:16:35.084Z,61.34
2019-05-04T01:19:05.509Z,61.24
2019-05-04T01:21:34.985Z,61.02
2019-05-04T01:24:04.541Z,61.20
2019-05-04T01:26:34.672Z,61.48
2019-05-04T01:29:04.577Z,61.61
2019-05-04T01:31:34.514Z,61.38
2019-05-04T01:34:24.567Z,61.81
2019-05-04T01:36:59.780Z,62.37
2019-05-04T01:39:50.276Z,62.97
2019-05-04T01:42:19.675Z,63.45
2019-05-04T01:44:49.001Z,63.95
2019-05-04T01:47:18.352Z,64.55
2019-05-04T01:49:47.765Z,64.66
2019-05-04T01:52:17.771Z,64.69
2019-05-04T01:54:47.122Z,65.20
2019-05-04T01:57:25.902Z,65.51
2019-05-04T01:59:55.625Z,65.66
2019-05-04T02:02:26.215Z,65.88
2019-05-04T02:04:55.646Z,66.44
2019-05-04T02:07:25.501Z,66.41
2019-05-04T02:09:55.235Z,66.18
2019-05-04T02:12:25.609Z,66.54
2019-05-04T02:14:55.244Z,66.71
2019-05-04T02:17:24.984Z,66.78
2019-05-04T02:19:55.784Z,67.09
2019-05-04T02:22:35.308Z,66.95
2019-05-04T02:25:12.101Z,66.72
2019-05-04T02:27:47.361Z,66.81
2019-05-04T02:30:36.791Z,67.01
2019-05-04T02:33:06.609Z,67.23
2019-05-04T02:35:36.098Z,67.62
2019-05-04T02:38:13.297Z,67.87
2019-05-04T02:40:50.462Z,68.28
2019-05-04T02:43:08.727Z,67.62
2019-05-04T02:45:40.677Z,67.66
2019-05-04T02:48:25.305Z,67.87
2019-05-04T02:51:05.896Z,68.43
2019-05-04T02:53:36.294Z,68.39
2019-05-04T02:56:05.861Z,68.89
2019-05-04T02:58:38.278Z,69.17
2019-05-04T03:01:06.239Z,69.20
2019-05-04T03:03:35.719Z,69.10
2019-05-04T03:06:05.386Z,69.41
2019-05-04T03:08:38.483Z,69.58
2019-05-04T03:11:06.111Z,69.27
2019-05-04T03:13:35.880Z,69.29
2019-05-04T03:16:05.578Z,69.50
2019-05-04T03:18:41.564Z,69.85
2019-05-04T03:21:29.820Z,69.86
2019-05-04T03:23:59.377Z,69.94
2019-05-04T03:26:28.726Z,70.21
2019-05-04T03:28:58.048Z,70.23
2019-05-04T03:31:28.379Z,70.24
2019-05-04T03:33:58.976Z,70.06
2019-05-04T03:36:32.642Z,70.01
2019-05-04T03:38:59.932Z,69.86
2019-05-04T03:41:29.323Z,70.27
2019-05-04T03:43:58.737Z,69.95
2019-05-04T03:46:46.964Z,69.69
2019-05-04T03:49:38.004Z,69.57
2019-05-04T03:52:07.662Z,69.67
2019-05-04T03:54:36.961Z,69.22
2019-05-04T03:57:06.301Z,69.23
2019-05-04T03:59:36.008Z,68.71
2019-05-04T04:02:06.036Z,68.95
2019-05-04T04:04:36.193Z,69.33
2019-05-04T04:07:05.939Z,69.21
2019-05-04T04:09:37.110Z,69.09
2019-05-04T04:12:06.326Z,68.92
2019-05-04T04:14:36.232Z,69.12
2019-05-04T04:17:15.352Z,68.91
2019-05-04T04:19:46.129Z,68.98
2019-05-04T04:22:15.957Z,68.77
2019-05-04T04:24:46.272Z,68.04
2019-05-04T04:27:19.842Z,67.68
2019-05-04T04:29:49.202Z,67.64
2019-05-04T04:32:18.552Z,67.60
2019-05-04T04:34:47.863Z,67.55
2019-05-04T04:37:17.227Z,67.31
2019-05-04T04:39:46.712Z,67.47
2019-05-04T04:42:16.783Z,67.72
2019-05-04T04:44:46.376Z,67.31
2019-05-04T04:47:15.697Z,65.93
2019-05-04T04:49:45.572Z,65.24
2019-05-04T04:52:15.489Z,63.69
2019-05-04T04:54:50.182Z,62.88
2019-05-04T04:57:35.579Z,63.21
2019-05-04T05:00:26.966Z,62.87
2019-05-04T05:02:56.307Z,61.91
2019-05-04T05:05:42.205Z,61.29
2019-05-04T05:08:16.002Z,59.68
2019-05-04T05:10:45.509Z,59.10
2019-05-04T05:13:15.359Z,59.33
2019-05-04T05:15:45.017Z,58.67
2019-05-04T05:18:15.184Z,58.36
2019-05-04T05:21:15.968Z,58.55
2019-05-04T05:23:45.414Z,59.27
2019-05-04T05:26:15.170Z,57.68
2019-05-04T05:28:44.978Z,57.82
2019-05-04T05:31:29.710Z,58.11
2019-05-04T05:34:16.965Z,56.30
2019-05-04T05:36:47.110Z,56.00
2019-05-04T05:39:16.469Z,55.12
2019-05-04T05:41:50.075Z,55.02
2019-05-04T05:44:16.925Z,52.60
2019-05-04T05:46:56.497Z,53.34
2019-05-04T05:49:45.327Z,53.03
2019-05-04T05:52:40.763Z,54.76
2019-05-04T05:55:21.703Z,53.71
2019-05-04T05:58:07.566Z,54.34
2019-05-04T06:00:54.947Z,54.17
2019-05-04T06:03:44.786Z,55.42
2019-05-04T06:06:22.060Z,55.01
2019-05-04T06:08:51.393Z,52.18
2019-05-04T06:11:22.083Z,52.59
2019-05-04T06:14:14.940Z,52.40
2019-05-04T06:16:59.214Z,52.78
2019-05-04T06:19:47.486Z,50.94
2019-05-04T06:22:25.356Z,50.79
2019-05-04T06:25:11.449Z,49.28
2019-05-04T06:27:48.613Z,45.55
2019-05-04T06:30:29.090Z,47.01
2019-05-04T06:33:11.369Z,47.22
2019-05-04T06:35:50.296Z,46.04
2019-05-04T06:38:41.013Z,43.79
2019-05-04T06:41:11.397Z,42.71
2019-05-04T06:43:58.309Z,41.29
2019-05-04T06:46:32.087Z,40.92
2019-05-04T06:49:02.413Z,40.15
2019-05-04T06:52:06.984Z,38.60
2019-05-04T06:54:52.014Z,38.61
2019-05-04T06:57:43.975Z,37.42
2019-05-04T07:00:15.705Z,38.07
2019-05-04T07:02:44.850Z,37.03
2019-05-04T07:05:17.131Z,35.58
2019-05-04T07:07:45.540Z,34.59
2019-05-04T07:10:15.339Z,33.62
2019-05-04T07:12:45.556Z,34.55
2019-05-04T07:15:18.569Z,33.77
2019-05-04T07:17:49.134Z,33.38
2019-05-04T07:20:18.412Z,32.47
2019-05-04T07:22:47.962Z,31.94
2019-05-04T07:25:18.008Z,29.57
2019-05-04T07:27:48.945Z,29.09
2019-05-04T07:30:18.638Z,29.04
2019-05-04T07:32:49.628Z,30.40
2019-05-04T07:35:32.351Z,31.96
2019-05-04T07:38:12.072Z,31.36
2019-05-04T07:40:46.135Z,31.19
2019-05-04T07:43:15.470Z,29.95
2019-05-04T07:45:44.822Z,30.01
2019-05-04T07:48:15.385Z,30.41
2019-05-04T07:50:44.853Z,30.21
2019-05-04T07:53:15.843Z,30.68
2019-05-04T07:55:45.770Z,31.32
2019-05-04T07:58:15.180Z,32.98
2019-05-04T08:00:46.048Z,34.80
2019-05-04T08:03:19.930Z,36.80
2019-05-04T08:05:48.405Z,37.29
2019-05-04T08:08:19.931Z,37.03
2019-05-04T08:10:50.745Z,36.74
2019-05-04T08:13:20.594Z,36.74
2019-05-04T08:15:51.122Z,36.64
2019-05-04T08:18:21.256Z,36.68
2019-05-04T08:21:00.610Z,37.24
2019-05-04T08:23:24.959Z,38.38
2019-05-04T08:25:55.471Z,38.06
2019-05-04T08:28:24.914Z,37.96
2019-05-04T08:30:55.186Z,37.40
2019-05-04T08:33:29.106Z,36.59
2019-05-04T08:35:55.821Z,35.62
2019-05-04T08:38:25.224Z,35.71
2019-05-04T08:40:54.578Z,35.45
2019-05-04T08:43:24.866Z,33.96
2019-05-04T08:45:59.052Z,33.40
2019-05-04T08:48:29.354Z,33.75
2019-05-04T08:51:31.314Z,34.48
2019-05-04T08:53:58.890Z,34.60
2019-05-04T08:56:40.456Z,34.23
2019-05-04T08:59:15.548Z,33.87
2019-05-04T09:01:58.558Z,34.61
2019-05-04T09:04:28.706Z,35.18
2019-05-04T09:07:04.265Z,34.18
2019-05-04T09:09:30.397Z,35.00
2019-05-04T09:11:58.883Z,35.18
2019-05-04T09:14:32.891Z,35.94
2019-05-04T09:16:59.631Z,35.75
2019-05-04T09:19:29.005Z,35.57
2019-05-04T09:22:17.354Z,35.78
2019-05-04T09:24:29.371Z,36.04
2019-05-04T09:26:59.032Z,36.11
2019-05-04T09:29:30.975Z,36.08
2019-05-04T09:32:00.064Z,36.01
2019-05-04T09:34:31.946Z,35.99
2019-05-04T09:37:00.493Z,35.82
2019-05-04T09:39:29.825Z,36.03
2019-05-04T09:42:04.919Z,36.71
2019-05-04T09:44:34.650Z,37.44
2019-05-04T09:47:04.723Z,36.77
2019-05-04T09:49:34.786Z,36.38
2019-05-04T09:52:10.435Z,36.74
2019-05-04T09:54:39.742Z,36.50
2019-05-04T09:57:09.062Z,36.52
2019-05-04T09:59:49.742Z,37.50
2019-05-04T10:02:09.534Z,37.25
2019-05-04T10:04:38.872Z,37.67
2019-05-04T10:07:08.240Z,37.67
2019-05-04T10:09:37.986Z,37.33
2019-05-04T10:12:15.225Z,37.47
2019-05-04T10:14:54.403Z,37.88
2019-05-04T10:17:29.031Z,37.14
2019-05-04T10:19:58.397Z,36.79
2019-05-04T10:22:27.736Z,36.04
2019-05-04T10:24:57.057Z,36.56
2019-05-04T10:27:35.129Z,37.02
2019-05-04T10:30:05.078Z,37.44
2019-05-04T10:32:34.628Z,37.69
2019-05-04T10:35:05.040Z,37.11
2019-05-04T10:37:34.687Z,36.84
2019-05-04T10:40:05.155Z,37.60
2019-05-04T10:42:35.155Z,37.30
2019-05-04T10:45:05.036Z,36.88
2019-05-04T10:47:34.937Z,36.79
2019-05-04T10:50:05.182Z,36.68
2019-05-04T10:52:36.011Z,36.91
2019-05-04T10:55:06.548Z,37.26
2019-05-04T10:57:39.765Z,37.71
2019-05-04T11:00:14.567Z,37.91
2019-05-04T11:02:43.974Z,37.92
2019-05-04T11:05:15.242Z,37.60
2019-05-04T11:07:44.902Z,38.17
2019-05-04T11:10:15.438Z,38.97
2019-05-04T11:12:45.109Z,39.26
2019-05-04T11:15:14.818Z,39.45
2019-05-04T11:17:44.615Z,39.45
2019-05-04T11:20:16.253Z,38.71
2019-05-04T11:22:46.616Z,38.56
2019-05-04T11:25:29.196Z,39.49
2019-05-04T11:28:09.696Z,39.45
2019-05-04T11:30:39.074Z,38.54
2019-05-04T11:33:08.425Z,38.51
2019-05-04T11:35:37.859Z,38.48
2019-05-04T11:38:07.213Z,38.61
2019-05-04T11:40:36.552Z,39.09
2019-05-04T11:43:06.210Z,38.93
2019-05-04T11:45:35.664Z,38.49
2019-05-04T11:48:05.416Z,39.11
2019-05-04T11:50:36.021Z,39.66
2019-05-04T11:53:06.625Z,38.89
2019-05-04T11:55:35.964Z,38.93
2019-05-04T11:58:05.828Z,38.95
2019-05-04T12:00:36.818Z,39.58
2019-05-04T12:03:07.908Z,39.04
2019-05-04T12:05:59.110Z,38.42
2019-05-04T12:08:55.001Z,38.29
2019-05-04T12:11:26.809Z,38.67
2019-05-04T12:13:56.186Z,39.31
2019-05-04T12:16:25.677Z,38.97
2019-05-04T12:18:55.163Z,39.13
2019-05-04T12:21:24.570Z,39.37
2019-05-04T12:23:55.210Z,38.88
2019-05-04T12:26:25.433Z,39.23
2019-05-04T12:28:55.607Z,39.62
2019-05-04T12:31:25.002Z,39.71
2019-05-04T12:33:54.519Z,39.04
2019-05-04T12:36:23.846Z,39.03
2019-05-04T12:38:53.239Z,39.34
2019-05-04T12:41:24.379Z,38.77
2019-05-04T12:44:01.539Z,37.92
2019-05-04T12:46:25.131Z,37.55
2019-05-04T12:48:54.684Z,37.38
2019-05-04T12:51:24.480Z,37.62
2019-05-04T12:53:55.011Z,38.08
2019-05-04T12:56:24.896Z,37.61
2019-05-04T12:58:55.356Z,37.44
2019-05-04T13:01:24.873Z,37.62
2019-05-04T13:03:54.767Z,37.74
2019-05-04T13:06:24.539Z,38.18
2019-05-04T13:08:54.425Z,38.09
2019-05-04T13:11:25.045Z,38.54
2019-05-04T13:13:54.542Z,38.38
2019-05-04T13:16:25.000Z,39.17
2019-05-04T13:19:00.269Z,39.45
2019-05-04T13:21:29.664Z,39.16
2019-05-04T13:23:59.172Z,39.13
2019-05-04T13:26:28.543Z,38.91
2019-05-04T13:28:57.885Z,39.02
2019-05-04T13:31:27.287Z,38.67
2019-05-04T13:33:56.879Z,39.49
2019-05-04T13:36:26.752Z,39.37
2019-05-04T13:38:56.475Z,39.75
2019-05-04T13:41:26.113Z,40.15
2019-05-04T13:43:56.607Z,40.66
2019-05-04T13:46:26.228Z,40.89
2019-05-04T13:48:56.235Z,39.80
2019-05-04T13:51:26.064Z,39.94
2019-05-04T13:53:57.616Z,40.31
2019-05-04T13:56:44.544Z,39.34
2019-05-04T13:59:18.516Z,39.10
2019-05-04T14:02:16.279Z,38.92
2019-05-04T14:04:54.445Z,38.95
2019-05-04T14:07:23.965Z,38.28
2019-05-04T14:09:54.445Z,39.12
2019-05-04T14:12:24.682Z,39.02
2019-05-04T14:14:55.018Z,38.08
2019-05-04T14:17:24.775Z,37.63
2019-05-04T14:19:54.754Z,37.28
2019-05-04T14:22:25.680Z,38.41
2019-05-04T14:24:55.500Z,38.02
2019-05-04T14:27:26.763Z,36.95
2019-05-04T14:29:56.391Z,36.76
2019-05-04T14:32:25.753Z,37.04
2019-05-04T14:34:58.289Z,36.47
2019-05-04T14:37:27.616Z,36.10
2019-05-04T14:39:57.033Z,36.18
2019-05-04T14:42:27.467Z,36.21
2019-05-04T14:45:17.854Z,36.26
2019-05-04T14:48:09.156Z,36.60
2019-05-04T14:50:38.514Z,36.16
2019-05-04T14:53:07.928Z,36.75
2019-05-04T14:55:37.267Z,36.96
2019-05-04T14:58:06.628Z,37.11
2019-05-04T15:00:36.170Z,37.70
2019-05-04T15:03:05.635Z,38.11
2019-05-04T15:05:35.058Z,38.62
2019-05-04T15:08:04.580Z,38.74
2019-05-04T15:10:34.371Z,39.11
2019-05-04T15:13:05.458Z,39.58
2019-05-04T15:15:35.057Z,39.77
2019-05-04T15:18:05.110Z,40.30
2019-05-04T15:20:40.948Z,41.01
2019-05-04T15:23:10.308Z,41.58
2019-05-04T15:25:39.946Z,42.20
2019-05-04T15:28:09.271Z,42.88
2019-05-04T15:30:38.727Z,43.60
2019-05-04T15:33:08.090Z,44.37
2019-05-04T15:35:37.421Z,44.81
2019-05-04T15:38:06.842Z,45.12
2019-05-04T15:40:36.187Z,45.24
2019-05-04T15:43:05.563Z,45.56
2019-05-04T15:45:35.286Z,45.42
2019-05-04T15:48:08.146Z,45.64
2019-05-04T15:50:56.125Z,45.57
2019-05-04T15:53:47.141Z,45.57
2019-05-04T15:56:35.362Z,45.98
2019-05-04T15:59:06.908Z,45.91
2019-05-04T16:01:36.407Z,46.16
2019-05-04T16:04:05.728Z,46.24
2019-05-04T16:06:35.061Z,46.08
2019-05-04T16:09:05.682Z,45.96
2019-05-04T16:11:35.207Z,46.18
2019-05-04T16:14:05.375Z,46.28
2019-05-04T16:16:35.708Z,46.66
2019-05-04T16:19:05.182Z,46.71
2019-05-04T16:21:35.297Z,46.61
2019-05-04T16:24:06.058Z,46.47
2019-05-04T16:26:35.529Z,46.71
2019-05-04T16:29:05.540Z,46.75
2019-05-04T16:31:35.015Z,47.00
2019-05-04T16:34:04.983Z,46.59
2019-05-04T16:36:34.405Z,46.76
2019-05-04T16:39:05.130Z,46.62
2019-05-04T16:41:35.143Z,46.85
2019-05-04T16:44:07.498Z,46.62
2019-05-04T16:46:36.989Z,46.67
2019-05-04T16:49:08.821Z,46.73
2019-05-04T16:51:59.275Z,46.62
2019-05-04T16:54:28.883Z,46.80
2019-05-04T16:56:59.217Z,47.23
2019-05-04T16:59:28.769Z,47.29
2019-05-04T17:02:16.138Z,47.32
2019-05-04T17:04:51.961Z,47.35
2019-05-04T17:07:20.410Z,47.94
2019-05-04T17:09:49.793Z,47.89
2019-05-04T17:12:19.499Z,48.01
2019-05-04T17:14:48.857Z,48.20
2019-05-04T17:17:18.229Z,48.27
2019-05-04T17:19:47.703Z,48.36
2019-05-04T17:22:17.483Z,48.52
2019-05-04T17:25:05.163Z,48.84
2019-05-04T17:27:54.966Z,48.87
2019-05-04T17:30:38.502Z,49.16
2019-05-04T17:33:08.143Z,49.27
2019-05-04T17:35:37.864Z,49.19
2019-05-04T17:38:07.482Z,49.47
2019-05-04T17:40:43.370Z,51.70
2019-05-04T17:43:34.500Z,52.05
2019-05-04T17:46:05.841Z,51.23
2019-05-04T17:48:35.169Z,50.42
2019-05-04T17:51:10.419Z,51.14
2019-05-04T17:53:41.707Z,50.31
2019-05-04T17:56:11.360Z,50.38
2019-05-04T17:58:40.710Z,50.13
2019-05-04T18:01:27.420Z,50.33
2019-05-04T18:03:59.451Z,50.55
2019-05-04T18:06:28.787Z,50.61
2019-05-04T18:09:00.459Z,50.90
2019-05-04T18:11:37.605Z,51.23
2019-05-04T18:14:35.531Z,51.61
2019-05-04T18:17:07.183Z,52.65
2019-05-04T18:19:36.529Z,52.83
2019-05-04T18:22:05.914Z,53.47
2019-05-04T18:24:35.393Z,54.28
2019-05-04T18:27:04.787Z,55.06
2019-05-04T18:29:35.338Z,56.06
2019-05-04T18:32:04.949Z,56.77
2019-05-04T18:34:36.651Z,57.24
2019-05-04T18:37:05.630Z,57.45
2019-05-04T18:39:34.960Z,57.47
2019-05-04T18:42:06.032Z,57.52
2019-05-04T18:44:54.501Z,57.90
2019-05-04T18:47:51.776Z,58.48
2019-05-04T18:50:21.118Z,58.39
2019-05-04T18:52:50.473Z,58.69
2019-05-04T18:55:19.865Z,59.16
2019-05-04T18:57:49.220Z,59.75
2019-05-04T19:00:31.526Z,59.97
2019-05-04T19:03:01.138Z,59.96
2019-05-04T19:05:31.181Z,60.39
2019-05-04T19:08:06.674Z,60.99
2019-05-04T19:10:36.040Z,61.13
2019-05-04T19:13:05.380Z,61.40
2019-05-04T19:15:34.790Z,61.41
2019-05-04T19:18:04.710Z,61.45
2019-05-04T19:20:34.131Z,61.28
2019-05-04T19:23:04.564Z,60.80
2019-05-04T19:25:35.341Z,60.62
2019-05-04T19:28:05.113Z,60.85
2019-05-04T19:30:35.174Z,61.02
2019-05-04T19:33:05.391Z,60.92
2019-05-04T19:35:34.828Z,61.08
2019-05-04T19:38:05.483Z,61.62
2019-05-04T19:40:39.289Z,61.30
2019-05-04T19:43:31.424Z,60.83
2019-05-04T19:46:31.891Z,60.70
2019-05-04T19:49:07.077Z,59.94
2019-05-04T19:51:34.727Z,59.60
2019-05-04T19:54:06.351Z,59.61
2019-05-04T19:56:35.284Z,59.39
2019-05-04T19:59:05.186Z,59.06
2019-05-04T20:01:34.752Z,58.59
2019-05-04T20:04:05.460Z,58.29
2019-05-04T20:06:48.743Z,58.19
2019-05-04T20:09:46.255Z,58.16
2019-05-04T20:12:18.608Z,58.13
2019-05-04T20:15:08.690Z,58.90
2019-05-04T20:17:19.052Z,58.66
2019-05-04T20:19:48.385Z,58.75
2019-05-04T20:22:17.748Z,59.04
2019-05-04T20:24:47.108Z,59.34
2019-05-04T20:27:16.476Z,59.18
2019-05-04T20:29:45.812Z,59.54
2019-05-04T20:32:15.187Z,59.65
2019-05-04T20:34:45.006Z,60.07
2019-05-04T20:37:15.703Z,60.99
2019-05-04T20:39:45.707Z,61.29
2019-05-04T20:42:15.810Z,61.80
2019-05-04T20:44:54.959Z,62.21
2019-05-04T20:47:54.744Z,62.51
2019-05-04T20:50:24.537Z,62.67
2019-05-04T20:53:15.824Z,63.45
2019-05-04T20:55:45.846Z,62.88
2019-05-04T20:58:15.330Z,62.92
2019-05-04T21:00:45.353Z,62.90
2019-05-04T21:03:24.647Z,62.88
2019-05-04T21:06:20.141Z,62.97
2019-05-04T21:08:49.499Z,62.84
2019-05-04T21:11:18.895Z,63.51
2019-05-04T21:13:48.263Z,63.67
2019-05-04T21:16:17.980Z,63.92
2019-05-04T21:19:00.710Z,64.48
2019-05-04T21:21:41.142Z,64.76
2019-05-04T21:24:10.772Z,65.18
2019-05-04T21:26:40.117Z,65.69
2019-05-04T21:29:09.471Z,65.81
2019-05-04T21:31:38.809Z,65.98
2019-05-04T21:34:08.137Z,65.74
2019-05-04T21:36:37.518Z,65.85
2019-05-04T21:39:07.360Z,65.65
2019-05-04T21:41:36.718Z,65.79
2019-05-04T21:44:09.311Z,66.35
2019-05-04T21:47:06.695Z,66.26
2019-05-04T21:49:56.042Z,66.32
2019-05-04T21:52:25.399Z,66.50
2019-05-04T21:54:54.831Z,67.09
2019-05-04T21:57:24.737Z,66.77
2019-05-04T21:59:55.160Z,66.98
2019-05-04T22:02:38.053Z,66.29
2019-05-04T22:05:12.741Z,66.13
2019-05-04T22:07:42.073Z,65.91
2019-05-04T22:10:11.715Z,65.98
2019-05-04T22:12:42.301Z,66.20
2019-05-04T22:15:11.848Z,66.42
2019-05-04T22:17:41.738Z,65.79
2019-05-04T22:20:15.216Z,65.85
2019-05-04T22:22:45.232Z,65.85
2019-05-04T22:25:15.089Z,65.88
2019-05-04T22:27:44.966Z,65.77
2019-05-04T22:30:14.730Z,66.26
2019-05-04T22:32:45.263Z,66.96
2019-05-04T22:35:14.833Z,66.94
2019-05-04T22:37:49.250Z,67.20
2019-05-04T22:40:18.589Z,67.07
2019-05-04T22:42:47.974Z,67.30
2019-05-04T22:45:17.622Z,67.28
2019-05-04T22:47:46.948Z,67.76
2019-05-04T22:50:16.276Z,67.97
2019-05-04T22:52:55.154Z,67.87
2019-05-04T22:55:29.518Z,67.90
2019-05-04T22:58:16.776Z,68.18
2019-05-04T23:00:57.552Z,68.05
2019-05-04T23:03:31.330Z,68.28
2019-05-04T23:06:00.652Z,68.50
2019-05-04T23:08:30.005Z,68.50
2019-05-04T23:10:59.391Z,68.74
2019-05-04T23:13:28.728Z,68.77
2019-05-04T23:15:58.068Z,68.77
2019-05-04T23:18:27.441Z,69.13
2019-05-04T23:20:56.766Z,69.33
2019-05-04T23:23:26.113Z,69.49
2019-05-04T23:25:55.474Z,69.71
2019-05-04T23:28:25.143Z,69.80
2019-05-04T23:30:55.163Z,69.82
2019-05-04T23:33:26.644Z,69.80
2019-05-04T23:35:55.764Z,69.75
2019-05-04T23:38:25.076Z,69.69
2019-05-04T23:40:55.326Z,69.67
2019-05-04T23:43:24.678Z,69.62
2019-05-04T23:45:54.937Z,70.01
2019-05-04T23:48:25.378Z,69.69
2019-05-04T23:50:55.220Z,69.59
2019-05-04T23:53:25.099Z,69.63
2019-05-04T23:55:54.742Z,69.57
2019-05-04T23:58:43.042Z,69.48
